createdAt,value
2018-08-13T00:03:19.524Z,1011.5
2018-08-13T00:08:19.569Z,1011.5
2018-08-13T00:13:20.414Z,1011.6
2018-08-13T00:18:20.190Z,1011.6
2018-08-13T00:23:20.096Z,1011.6
2018-08-13T00:28:20.324Z,1011.8
2018-08-13T00:33:20.334Z,1011.8
2018-08-13T00:38:20.100Z,1011.9
2018-08-13T00:43:20.319Z,1011.9
2018-08-13T00:48:21.821Z,1011.9
2018-08-13T00:53:21.690Z,1011.8
2018-08-13T00:58:35.842Z,1011.9
2018-08-13T01:03:35.688Z,1011.9
2018-08-13T01:08:35.672Z,1011.9
2018-08-13T01:13:35.870Z,1011.7
2018-08-13T01:18:35.682Z,1011.9
2018-08-13T01:23:35.711Z,1011.8
2018-08-13T01:28:35.761Z,1011.7
2018-08-13T01:33:37.124Z,1011.6
2018-08-13T01:38:36.867Z,1011.8
2018-08-13T01:43:51.239Z,1011.8
2018-08-13T01:48:50.985Z,1011.8
2018-08-13T01:53:56.397Z,1011.7
2018-08-13T01:58:56.334Z,1011.8
2018-08-13T02:04:08.216Z,1011.7
2018-08-13T02:09:08.190Z,1011.7
2018-08-13T02:14:08.099Z,1011.7
2018-08-13T02:19:08.157Z,1011.6
2018-08-13T02:24:07.993Z,1011.6
2018-08-13T02:29:07.963Z,1011.7
2018-08-13T02:34:08.151Z,1011.8
2018-08-13T02:39:08.454Z,1011.9
2018-08-13T02:44:08.057Z,1011.8
2018-08-13T02:49:20.519Z,1011.8
2018-08-13T02:54:20.594Z,1011.8
2018-08-13T02:59:20.361Z,1011.8
2018-08-13T03:04:20.509Z,1011.8
2018-08-13T03:09:20.388Z,1011.9
2018-08-13T03:14:20.411Z,1011.9
2018-08-13T03:19:20.639Z,1011.9
2018-08-13T03:24:20.454Z,1011.8
2018-08-13T03:29:20.604Z,1011.7
2018-08-13T03:34:20.649Z,1011.9
2018-08-13T03:39:20.456Z,1011.9
2018-08-13T03:44:20.457Z,1011.8
2018-08-13T03:49:20.444Z,1011.7
2018-08-13T03:54:20.459Z,1011.7
2018-08-13T03:59:35.568Z,1011.7
2018-08-13T04:04:35.501Z,1011.6
2018-08-13T04:09:35.531Z,1011.6
2018-08-13T04:14:35.457Z,1011.6
2018-08-13T04:19:35.501Z,1011.5
2018-08-13T04:24:35.371Z,1011.6
2018-08-13T04:29:35.420Z,1011.5
2018-08-13T04:34:36.219Z,1011.4
2018-08-13T04:39:35.904Z,1011.3
2018-08-13T04:44:50.824Z,1011.2
2018-08-13T04:49:50.749Z,1011.1
2018-08-13T04:54:50.790Z,1011.1
2018-08-13T04:59:50.541Z,1011
2018-08-13T05:04:50.546Z,1011
2018-08-13T05:09:50.546Z,1011
2018-08-13T05:14:50.551Z,1010.9
2018-08-13T05:19:50.554Z,1010.9
2018-08-13T05:24:50.547Z,1010.7
2018-08-13T05:30:02.657Z,1010.9
2018-08-13T05:35:01.891Z,1010.9
2018-08-13T05:40:02.037Z,1010.9
2018-08-13T05:45:02.242Z,1010.7
2018-08-13T05:50:02.122Z,1010.8
2018-08-13T05:55:01.945Z,1010.8
2018-08-13T06:00:02.091Z,1010.6
2018-08-13T06:05:06.109Z,1010.6
2018-08-13T06:10:06.037Z,1010.5
2018-08-13T06:15:15.797Z,1010.7
2018-08-13T06:20:15.538Z,1010.7
2018-08-13T06:25:15.786Z,1010.6
2018-08-13T06:30:16.074Z,1010.5
2018-08-13T06:35:15.741Z,1010.4
2018-08-13T06:40:15.562Z,1010.5
2018-08-13T06:45:15.726Z,1010.4
2018-08-13T06:50:15.747Z,1010.4
2018-08-13T06:55:15.785Z,1010.4
2018-08-13T07:00:28.540Z,1010.3
2018-08-13T07:05:28.239Z,1010.2
2018-08-13T07:10:28.477Z,1010.3
2018-08-13T07:15:28.427Z,1010.3
2018-08-13T07:20:28.489Z,1010.1
2018-08-13T07:25:28.981Z,1009.8
2018-08-13T07:30:28.714Z,1009.8
2018-08-13T07:35:28.740Z,1009.8
2018-08-13T07:40:28.653Z,1009.7
2018-08-13T07:45:29.115Z,1009.7
2018-08-13T07:50:28.754Z,1009.7
2018-08-13T07:55:28.587Z,1009.7
2018-08-13T08:00:32.119Z,1009.7
2018-08-13T08:05:31.975Z,1009.6
2018-08-13T08:10:42.507Z,1009.7
2018-08-13T08:15:42.213Z,1009.6
2018-08-13T08:20:42.234Z,1009.6
2018-08-13T08:25:42.389Z,1009.6
2018-08-13T08:30:42.450Z,1009.5
2018-08-13T08:35:42.278Z,1009.4
2018-08-13T08:40:42.525Z,1009.4
2018-08-13T08:45:42.591Z,1009.3
2018-08-13T08:50:42.310Z,1009.2
2018-08-13T08:55:55.267Z,1009
2018-08-13T09:00:54.987Z,1009
2018-08-13T09:05:55.292Z,1009
2018-08-13T09:10:55.708Z,1009
2018-08-13T09:15:55.008Z,1008.8
2018-08-13T09:20:55.007Z,1008.6
2018-08-13T09:25:55.182Z,1008.5
2018-08-13T09:30:56.994Z,1008.6
2018-08-13T09:35:56.905Z,1008.4
2018-08-13T09:41:09.130Z,1008.6
2018-08-13T09:46:09.063Z,1008.4
2018-08-13T09:51:08.864Z,1008.4
2018-08-13T09:56:09.020Z,1008.3
2018-08-13T10:01:09.107Z,1008.3
2018-08-13T10:06:08.815Z,1008.3
2018-08-13T10:11:09.038Z,1008.2
2018-08-13T10:16:09.117Z,1008.1
2018-08-13T10:21:09.100Z,1008
2018-08-13T10:26:09.013Z,1007.8
2018-08-13T10:31:08.872Z,1007.8
2018-08-13T10:36:09.119Z,1007.8
2018-08-13T10:41:12.127Z,1007.7
2018-08-13T10:46:13.402Z,1007.7
2018-08-13T10:51:25.174Z,1007.7
2018-08-13T10:56:25.109Z,1007.5
2018-08-13T11:01:24.892Z,1007.4
2018-08-13T11:06:24.895Z,1007.3
2018-08-13T11:11:25.112Z,1007.3
2018-08-13T11:16:27.093Z,1007.2
2018-08-13T11:21:27.095Z,1007.2
2018-08-13T11:26:26.782Z,1007
2018-08-13T11:31:26.995Z,1006.9
2018-08-13T11:36:27.026Z,1006.9
2018-08-13T11:41:26.826Z,1006.9
2018-08-13T11:46:27.437Z,1006.7
2018-08-13T11:51:32.859Z,1006.6
2018-08-13T11:56:32.907Z,1006.6
2018-08-13T12:01:42.185Z,1006.5
2018-08-13T12:06:41.877Z,1006.3
2018-08-13T12:11:42.048Z,1006.3
2018-08-13T12:16:42.025Z,1006.3
2018-08-13T12:21:42.691Z,1006.3
2018-08-13T12:26:42.033Z,1006.3
2018-08-13T12:31:42.028Z,1006
2018-08-13T12:36:43.367Z,1006
2018-08-13T12:41:43.066Z,1006.1
2018-08-13T12:46:58.221Z,1006.1
2018-08-13T12:51:58.147Z,1006
2018-08-13T12:56:58.253Z,1005.9
2018-08-13T13:01:58.171Z,1005.9
2018-08-13T13:06:58.173Z,1005.8
2018-08-13T13:11:57.970Z,1005.7
2018-08-13T13:16:58.122Z,1005.8
2018-08-13T13:21:57.975Z,1005.8
2018-08-13T13:26:58.192Z,1005.8
2018-08-13T13:31:57.952Z,1005.8
2018-08-13T13:36:58.152Z,1005.8
2018-08-13T13:41:58.216Z,1005.5
2018-08-13T13:46:59.637Z,1005.4
2018-08-13T13:51:59.921Z,1005.3
2018-08-13T13:57:14.897Z,1005.2
2018-08-13T14:02:14.408Z,1005.1
2018-08-13T14:07:14.395Z,1005.1
2018-08-13T14:12:14.389Z,1005.2
2018-08-13T14:17:14.374Z,1005.1
2018-08-13T14:22:14.537Z,1005
2018-08-13T14:27:14.578Z,1005
2018-08-13T14:32:14.546Z,1005
2018-08-13T14:37:14.675Z,1005
2018-08-13T14:42:14.599Z,1004.8
2018-08-13T14:47:14.574Z,1004.5
2018-08-13T14:52:14.664Z,1004.4
2018-08-13T14:57:14.788Z,1004.4
2018-08-13T15:02:14.544Z,1004.3
2018-08-13T15:07:28.429Z,1004.2
2018-08-13T15:12:28.268Z,1004.2
2018-08-13T15:17:28.346Z,1004.2
2018-08-13T15:22:28.367Z,1004.1
2018-08-13T15:27:29.184Z,1004
2018-08-13T15:32:28.148Z,1004
2018-08-13T15:37:28.185Z,1004
2018-08-13T15:42:29.242Z,1004
2018-08-13T15:47:29.008Z,1004
2018-08-13T15:52:41.431Z,1003.9
2018-08-13T15:57:41.136Z,1003.9
2018-08-13T16:02:41.167Z,1003.8
2018-08-13T16:07:41.136Z,1003.7
2018-08-13T16:12:41.128Z,1003.7
2018-08-13T16:17:41.154Z,1003.6
2018-08-13T16:22:41.205Z,1003.6
2018-08-13T16:27:41.135Z,1003.5
2018-08-13T16:32:41.138Z,1003.8
2018-08-13T16:37:52.546Z,1003.7
2018-08-13T16:42:52.241Z,1003.7
2018-08-13T16:47:52.228Z,1003.6
2018-08-13T16:52:52.487Z,1003.6
2018-08-13T16:57:52.655Z,1003.6
2018-08-13T17:02:52.655Z,1003.5
2018-08-13T17:07:52.844Z,1003.6
2018-08-13T17:12:57.616Z,1003.5
2018-08-13T17:17:57.507Z,1003.5
2018-08-13T17:23:07.225Z,1003.5
2018-08-13T17:28:07.361Z,1003.7
2018-08-13T17:33:07.188Z,1003.9
2018-08-13T17:38:07.182Z,1004
2018-08-13T17:43:08.116Z,1004
2018-08-13T17:48:06.964Z,1004
2018-08-13T17:53:07.197Z,1004.4
2018-08-13T17:58:11.139Z,1005.3
2018-08-13T18:03:10.918Z,1006.3
2018-08-13T18:08:23.796Z,1006.8
2018-08-13T18:13:23.547Z,1007.5
2018-08-13T18:18:23.555Z,1007.8
2018-08-13T18:23:23.514Z,1008.1
2018-08-13T18:28:23.604Z,1008.6
2018-08-13T18:33:23.518Z,1008.9
2018-08-13T18:38:23.546Z,1009.6
2018-08-13T18:43:26.168Z,1009.9
2018-08-13T18:48:25.827Z,1010.1
2018-08-13T18:53:38.642Z,1010.1
2018-08-13T18:58:37.831Z,1010.2
2018-08-13T19:03:37.846Z,1010.3
2018-08-13T19:08:37.892Z,1010.5
2018-08-13T19:13:37.907Z,1010.5
2018-08-13T19:18:37.985Z,1010.8
2018-08-13T19:23:38.009Z,1010.9
2018-08-13T19:28:43.257Z,1011.3
2018-08-13T19:33:42.908Z,1011.1
2018-08-13T19:38:57.000Z,1011.2
2018-08-13T19:43:56.197Z,1011.2
2018-08-13T19:48:56.173Z,1011.3
2018-08-13T19:53:56.333Z,1011.3
2018-08-13T19:58:56.228Z,1011.4
2018-08-13T20:03:56.176Z,1011.7
2018-08-13T20:08:59.150Z,1012
2018-08-13T20:13:56.202Z,1012.1
2018-08-13T20:18:56.197Z,1011.9
2018-08-13T20:24:07.907Z,1011.9
2018-08-13T20:29:07.622Z,1011.8
2018-08-13T20:34:07.631Z,1011.9
2018-08-13T20:39:07.619Z,1011.8
2018-08-13T20:44:07.664Z,1011.5
2018-08-13T20:49:07.602Z,1011.8
2018-08-13T20:54:07.598Z,1011.8
2018-08-13T20:59:07.757Z,1011.9
2018-08-13T21:04:07.642Z,1012
2018-08-13T21:09:19.776Z,1012
2018-08-13T21:14:19.616Z,1012
2018-08-13T21:19:19.669Z,1012
2018-08-13T21:24:19.502Z,1012
2018-08-13T21:29:19.737Z,1012
2018-08-13T21:34:19.494Z,1011.8
2018-08-13T21:39:19.704Z,1011.7
2018-08-13T21:44:21.780Z,1011.8
2018-08-13T21:49:23.083Z,1012
2018-08-13T21:54:35.404Z,1012
2018-08-13T21:59:35.453Z,1012
2018-08-13T22:04:35.332Z,1011.9
2018-08-13T22:09:35.094Z,1011.9
2018-08-13T22:14:35.298Z,1011.8
2018-08-13T22:19:35.336Z,1011.9
2018-08-13T22:24:35.114Z,1011.8
2018-08-13T22:29:35.435Z,1011.9
2018-08-13T22:34:35.337Z,1011.9
2018-08-13T22:39:48.238Z,1011.7
2018-08-13T22:44:48.084Z,1011.7
2018-08-13T22:49:47.984Z,1011.7
2018-08-13T22:54:48.176Z,1011.8
2018-08-13T22:59:48.071Z,1011.7
2018-08-13T23:04:47.963Z,1011.7
2018-08-13T23:09:47.976Z,1011.6
2018-08-13T23:14:48.541Z,1011.6
2018-08-13T23:19:47.974Z,1011.7
2018-08-13T23:24:48.147Z,1011.5
2018-08-13T23:29:48.435Z,1011.6
2018-08-13T23:34:48.724Z,1011.6
2018-08-13T23:39:48.048Z,1011.5
2018-08-13T23:44:48.184Z,1011.4
2018-08-13T23:50:00.094Z,1011.4
2018-08-13T23:54:59.811Z,1011.5
2018-08-13T23:59:59.806Z,1011.3
